createdAt,value
2023-03-01T00:00:38.994Z,0.10
2023-03-01T00:01:41.749Z,0.15
2023-03-01T00:02:43.959Z,-0.12
2023-03-01T00:03:46.369Z,-0.10
2023-03-01T00:04:49.067Z,0.09
2023-03-01T00:05:51.272Z,0.15
2023-03-01T00:06:53.429Z,0.16
2023-03-01T00:07:56.030Z,0.19
2023-03-01T00:08:58.303Z,0.22
2023-03-01T00:10:00.521Z,0.26
2023-03-01T00:11:29.045Z,0.31
2023-03-01T00:12:32.777Z,0.15
2023-03-01T00:13:35.937Z,0.16
2023-03-01T00:14:38.121Z,-0.09
2023-03-01T00:15:42.387Z,-0.29
2023-03-01T00:16:45.534Z,-0.12
2023-03-01T00:17:47.744Z,-0.17
2023-03-01T00:18:50.168Z,-0.11
2023-03-01T00:19:52.370Z,0.02
2023-03-01T00:20:55.738Z,-0.06
2023-03-01T00:21:58.148Z,-0.18
2023-03-01T00:23:00.565Z,-0.21
2023-03-01T00:24:04.284Z,-0.28
2023-03-01T00:25:06.597Z,-0.18
2023-03-01T00:26:11.044Z,-0.15
2023-03-01T00:27:15.906Z,-0.28
2023-03-01T00:28:18.218Z,-0.32
2023-03-01T00:29:20.611Z,-0.26
2023-03-01T00:30:22.819Z,-0.30
2023-03-01T00:31:28.676Z,-0.25
2023-03-01T00:32:31.100Z,-0.10
2023-03-01T00:33:33.613Z,-0.14
2023-03-01T00:34:36.079Z,-0.03
2023-03-01T00:35:38.466Z,0.06
2023-03-01T00:36:40.932Z,0.12
2023-03-01T00:37:43.335Z,0.05
2023-03-01T00:38:46.587Z,0.10
2023-03-01T00:39:49.315Z,0.02
2023-03-01T00:40:51.523Z,0.00
2023-03-01T00:41:53.807Z,-0.07
2023-03-01T00:42:56.366Z,-0.05
2023-03-01T00:43:58.630Z,-0.03
2023-03-01T00:45:00.986Z,0.07
2023-03-01T00:46:16.535Z,0.16
2023-03-01T00:47:19.185Z,0.19
2023-03-01T00:48:22.528Z,0.26
2023-03-01T00:49:28.739Z,0.26
2023-03-01T00:50:32.373Z,0.16
2023-03-01T00:51:34.595Z,0.02
2023-03-01T00:52:37.132Z,-0.08
2023-03-01T00:53:39.391Z,-0.11
2023-03-01T00:54:41.826Z,-0.28
2023-03-01T00:55:44.333Z,-0.34
2023-03-01T00:56:46.555Z,-0.36
2023-03-01T00:57:49.102Z,-0.37
2023-03-01T00:59:00.519Z,-0.49
2023-03-01T01:00:05.523Z,-0.47
2023-03-01T01:01:18.126Z,-0.57
2023-03-01T01:02:21.293Z,-0.50
2023-03-01T01:03:25.751Z,-0.58
2023-03-01T01:04:27.942Z,-0.66
2023-03-01T01:05:30.538Z,-0.61
2023-03-01T01:06:45.158Z,-0.62
2023-03-01T01:07:48.245Z,-0.51
2023-03-01T01:08:51.876Z,-0.38
2023-03-01T01:09:54.073Z,-0.54
2023-03-01T01:10:56.636Z,-0.48
2023-03-01T01:11:59.033Z,-0.30
2023-03-01T01:13:01.429Z,-0.12
2023-03-01T01:14:04.128Z,0.06
2023-03-01T01:15:07.193Z,-0.01
2023-03-01T01:16:09.939Z,-0.05
2023-03-01T01:17:12.380Z,-0.08
2023-03-01T01:18:16.379Z,-0.10
2023-03-01T01:19:18.733Z,-0.19
2023-03-01T01:20:20.972Z,-0.24
2023-03-01T01:21:25.485Z,-0.59
2023-03-01T01:22:28.114Z,-0.52
2023-03-01T01:23:30.303Z,-0.46
2023-03-01T01:24:32.756Z,-0.58
2023-03-01T01:25:37.343Z,-0.67
2023-03-01T01:26:39.559Z,-0.71
2023-03-01T01:27:42.171Z,-0.92
2023-03-01T01:28:45.171Z,-0.85
2023-03-01T01:29:47.546Z,-0.74
2023-03-01T01:30:49.852Z,-0.80
2023-03-01T01:31:52.155Z,-0.76
2023-03-01T01:32:54.585Z,-0.73
2023-03-01T01:33:57.960Z,-0.74
2023-03-01T01:35:00.347Z,-0.73
2023-03-01T01:36:02.854Z,-0.74
2023-03-01T01:37:08.728Z,-0.72
2023-03-01T01:38:11.118Z,-0.78
2023-03-01T01:39:14.113Z,-0.75
2023-03-01T01:40:16.910Z,-0.70
2023-03-01T01:41:20.438Z,-0.53
2023-03-01T01:42:22.909Z,-0.54
2023-03-01T01:43:31.070Z,-0.50
2023-03-01T01:44:35.436Z,-0.36
2023-03-01T01:45:37.978Z,-0.31
2023-03-01T01:46:44.208Z,-0.29
2023-03-01T01:47:49.540Z,-0.22
2023-03-01T01:48:56.740Z,-0.24
2023-03-01T01:49:59.140Z,-0.26
2023-03-01T01:51:02.579Z,-0.28
2023-03-01T01:52:19.320Z,-0.29
2023-03-01T01:53:22.364Z,-0.30
2023-03-01T01:54:31.189Z,-0.25
2023-03-01T01:55:34.130Z,-0.28
2023-03-01T01:56:39.862Z,-0.40
2023-03-01T01:57:46.268Z,-0.46
2023-03-01T01:58:49.226Z,-0.40
2023-03-01T01:59:55.262Z,-0.50
2023-03-01T02:00:57.728Z,-0.45
2023-03-01T02:02:03.507Z,-0.57
2023-03-01T02:03:11.215Z,-0.56
2023-03-01T02:04:13.543Z,-0.49
2023-03-01T02:05:47.197Z,-0.57
2023-03-01T02:07:12.058Z,-0.67
2023-03-01T02:08:17.947Z,-0.68
2023-03-01T02:09:24.067Z,-0.58
2023-03-01T02:10:28.121Z,-0.56
2023-03-01T02:11:33.731Z,-0.41
2023-03-01T02:12:37.961Z,-0.40
2023-03-01T02:13:40.137Z,-0.36
2023-03-01T02:14:42.334Z,-0.36
2023-03-01T02:15:45.294Z,-0.42
2023-03-01T02:16:48.255Z,-0.50
2023-03-01T02:17:51.725Z,-0.58
2023-03-01T02:18:54.436Z,-0.65
2023-03-01T02:20:15.726Z,-0.76
2023-03-01T02:21:36.179Z,-0.77
2023-03-01T02:22:40.019Z,-0.79
2023-03-01T02:23:42.687Z,-0.80
2023-03-01T02:25:11.983Z,-0.76
2023-03-01T02:26:25.572Z,-0.84
2023-03-01T02:27:38.021Z,-0.90
2023-03-01T02:28:43.637Z,-0.96
2023-03-01T02:29:46.730Z,-0.85
2023-03-01T02:31:09.832Z,-0.91
2023-03-01T02:32:16.478Z,-0.88
2023-03-01T02:33:18.879Z,-0.87
2023-03-01T02:34:26.140Z,-0.90
2023-03-01T02:35:37.094Z,-0.83
2023-03-01T02:36:44.062Z,-0.81
2023-03-01T02:37:46.565Z,-0.67
2023-03-01T02:38:52.054Z,-0.59
2023-03-01T02:40:04.020Z,-0.52
2023-03-01T02:41:09.073Z,-0.45
2023-03-01T02:42:22.418Z,-0.42
2023-03-01T02:43:31.987Z,-0.41
2023-03-01T02:44:34.534Z,-0.47
2023-03-01T02:45:36.871Z,-0.57
2023-03-01T02:46:48.921Z,-0.62
2023-03-01T02:47:51.531Z,-0.67
2023-03-01T02:48:57.375Z,-0.84
2023-03-01T02:50:00.240Z,-0.93
2023-03-01T02:51:34.237Z,-0.99
2023-03-01T02:53:00.713Z,-1.03
2023-03-01T02:54:09.589Z,-1.02
2023-03-01T02:55:15.640Z,-1.01
2023-03-01T02:56:17.877Z,-0.96
2023-03-01T02:58:46.741Z,-0.97
2023-03-01T02:59:52.426Z,-0.98
2023-03-01T03:00:55.456Z,-0.99
2023-03-01T03:01:58.123Z,-0.96
2023-03-01T03:03:00.819Z,-0.95
2023-03-01T03:04:09.112Z,-0.97
2023-03-01T03:05:20.739Z,-0.90
2023-03-01T03:06:24.843Z,-0.90
2023-03-01T03:07:27.709Z,-0.93
2023-03-01T03:08:30.306Z,-0.99
2023-03-01T03:09:32.880Z,-1.04
2023-03-01T03:10:40.884Z,-1.03
2023-03-01T03:11:44.079Z,-0.96
2023-03-01T03:12:51.903Z,-0.92
2023-03-01T03:13:54.461Z,-0.73
2023-03-01T03:14:56.892Z,-0.67
2023-03-01T03:15:59.476Z,-0.72
2023-03-01T03:17:01.904Z,-0.65
2023-03-01T03:18:06.615Z,-0.63
2023-03-01T03:19:08.999Z,-0.66
2023-03-01T03:20:14.015Z,-0.70
2023-03-01T03:21:17.292Z,-0.77
2023-03-01T03:22:19.518Z,-1.01
2023-03-01T03:23:22.830Z,-0.95
2023-03-01T03:24:25.005Z,-0.93
2023-03-01T03:25:29.986Z,-0.81
2023-03-01T03:26:33.162Z,-0.79
2023-03-01T03:27:35.536Z,-0.90
2023-03-01T03:28:41.044Z,-0.93
2023-03-01T03:29:43.379Z,-0.96
2023-03-01T03:30:46.006Z,-0.94
2023-03-01T03:31:48.527Z,-1.05
2023-03-01T03:32:54.256Z,-1.23
2023-03-01T03:33:57.835Z,-1.41
2023-03-01T03:35:00.048Z,-1.38
2023-03-01T03:36:02.409Z,-1.31
2023-03-01T03:37:04.972Z,-1.30
2023-03-01T03:38:16.628Z,-1.30
2023-03-01T03:39:20.647Z,-1.23
2023-03-01T03:40:23.141Z,-1.38
2023-03-01T03:41:25.436Z,-1.37
2023-03-01T03:42:27.636Z,-1.27
2023-03-01T03:43:32.832Z,-1.29
2023-03-01T03:44:35.192Z,-1.27
2023-03-01T03:45:37.687Z,-1.28
2023-03-01T03:46:40.379Z,-1.35
2023-03-01T03:47:43.327Z,-1.39
2023-03-01T03:48:46.767Z,-1.42
2023-03-01T03:49:49.055Z,-1.49
2023-03-01T03:50:56.565Z,-1.53
2023-03-01T03:51:59.057Z,-1.59
2023-03-01T03:53:03.290Z,-1.58
2023-03-01T03:54:05.744Z,-1.56
2023-03-01T03:55:11.890Z,-1.54
2023-03-01T03:56:14.522Z,-1.56
2023-03-01T03:57:16.774Z,-1.53
2023-03-01T03:58:20.938Z,-1.51
2023-03-01T03:59:23.691Z,-1.43
2023-03-01T04:00:26.201Z,-1.27
2023-03-01T04:01:28.575Z,-1.35
2023-03-01T04:02:30.836Z,-1.53
2023-03-01T04:03:34.283Z,-1.59
2023-03-01T04:04:36.642Z,-1.43
2023-03-01T04:05:41.353Z,-1.37
2023-03-01T04:06:43.770Z,-1.18
2023-03-01T04:07:46.678Z,-1.25
2023-03-01T04:08:52.066Z,-1.35
2023-03-01T04:09:54.673Z,-1.52
2023-03-01T04:11:22.411Z,-1.50
2023-03-01T04:12:24.709Z,-1.55
2023-03-01T04:13:27.380Z,-1.51
2023-03-01T04:14:29.587Z,-1.70
2023-03-01T04:15:33.799Z,-1.70
2023-03-01T04:16:37.369Z,-1.71
2023-03-01T04:17:47.558Z,-1.79
2023-03-01T04:18:50.479Z,-1.85
2023-03-01T04:19:52.766Z,-1.85
2023-03-01T04:20:56.330Z,-1.92
2023-03-01T04:21:59.032Z,-1.89
2023-03-01T04:23:11.573Z,-1.89
2023-03-01T04:24:14.094Z,-1.91
2023-03-01T04:25:16.363Z,-1.95
2023-03-01T04:26:18.768Z,-1.96
2023-03-01T04:27:21.011Z,-1.97
2023-03-01T04:28:29.295Z,-1.97
2023-03-01T04:29:31.550Z,-1.98
2023-03-01T04:30:36.746Z,-1.91
2023-03-01T04:31:38.962Z,-1.83
2023-03-01T04:32:41.477Z,-1.92
2023-03-01T04:33:55.202Z,-1.88
2023-03-01T04:34:57.432Z,-1.95
2023-03-01T04:35:59.721Z,-2.01
2023-03-01T04:37:01.953Z,-2.09
2023-03-01T04:38:05.623Z,-2.17
2023-03-01T04:39:13.541Z,-2.21
2023-03-01T04:40:17.597Z,-2.16
2023-03-01T04:41:21.834Z,-2.24
2023-03-01T04:42:24.210Z,-2.26
2023-03-01T04:43:26.392Z,-2.25
2023-03-01T04:44:29.056Z,-2.27
2023-03-01T04:45:33.008Z,-2.27
2023-03-01T04:46:35.214Z,-2.05
2023-03-01T04:47:39.274Z,-1.92
2023-03-01T04:48:43.441Z,-1.81
2023-03-01T04:49:45.889Z,-1.79
2023-03-01T04:50:48.225Z,-1.66
2023-03-01T04:51:50.458Z,-1.63
2023-03-01T04:52:53.277Z,-1.57
2023-03-01T04:53:56.079Z,-1.58
2023-03-01T04:54:58.305Z,-1.52
2023-03-01T04:56:00.800Z,-1.50
2023-03-01T04:57:04.278Z,-1.46
2023-03-01T04:58:06.517Z,-1.63
2023-03-01T04:59:10.984Z,-1.71
2023-03-01T05:00:21.244Z,-1.82
2023-03-01T05:01:23.463Z,-1.95
2023-03-01T05:02:25.893Z,-1.98
2023-03-01T05:03:29.069Z,-2.03
2023-03-01T05:04:31.954Z,-2.10
2023-03-01T05:05:37.366Z,-2.09
2023-03-01T05:06:40.424Z,-2.03
2023-03-01T05:07:42.617Z,-2.00
2023-03-01T05:08:45.092Z,-2.03
2023-03-01T05:09:47.650Z,-2.04
2023-03-01T05:10:52.474Z,-1.96
2023-03-01T05:11:54.675Z,-1.97
2023-03-01T05:13:00.806Z,-1.92
2023-03-01T05:14:04.412Z,-1.84
2023-03-01T05:15:07.962Z,-1.92
2023-03-01T05:16:13.746Z,-1.96
2023-03-01T05:17:16.112Z,-1.99
2023-03-01T05:18:18.291Z,-1.97
2023-03-01T05:19:23.687Z,-1.94
2023-03-01T05:20:31.128Z,-1.99
2023-03-01T05:21:34.818Z,-2.05
2023-03-01T05:22:37.502Z,-2.05
2023-03-01T05:23:40.517Z,-2.15
2023-03-01T05:24:42.737Z,-2.12
2023-03-01T05:25:45.670Z,-2.15
2023-03-01T05:26:49.471Z,-2.11
2023-03-01T05:27:52.108Z,-2.08
2023-03-01T05:28:59.492Z,-2.05
2023-03-01T05:30:14.211Z,-2.01
2023-03-01T05:31:16.935Z,-2.03
2023-03-01T05:32:19.227Z,-2.01
2023-03-01T05:33:23.017Z,-2.03
2023-03-01T05:34:32.875Z,-1.99
2023-03-01T05:35:35.175Z,-2.00
2023-03-01T05:36:37.581Z,-2.02
2023-03-01T05:37:42.517Z,-2.09
2023-03-01T05:38:45.099Z,-2.13
2023-03-01T05:39:48.904Z,-2.15
2023-03-01T05:40:52.413Z,-2.19
2023-03-01T05:41:56.601Z,-2.22
2023-03-01T05:42:58.784Z,-2.20
2023-03-01T05:44:00.954Z,-2.21
2023-03-01T05:45:03.204Z,-2.23
2023-03-01T05:46:05.671Z,-2.22
2023-03-01T05:47:08.134Z,-2.23
2023-03-01T05:48:12.503Z,-2.33
2023-03-01T05:49:15.353Z,-2.33
2023-03-01T05:50:23.294Z,-2.38
2023-03-01T05:51:25.668Z,-2.39
2023-03-01T05:52:28.125Z,-2.37
2023-03-01T05:53:30.932Z,-2.32
2023-03-01T05:54:34.195Z,-2.25
2023-03-01T05:55:37.406Z,-2.19
2023-03-01T05:56:39.624Z,-2.12
2023-03-01T05:57:41.989Z,-2.14
2023-03-01T05:58:44.221Z,-2.17
2023-03-01T05:59:46.632Z,-2.10
2023-03-01T06:00:49.756Z,-2.11
2023-03-01T06:01:51.964Z,-2.07
2023-03-01T06:02:58.523Z,-2.10
2023-03-01T06:04:01.301Z,-2.10
2023-03-01T06:05:03.927Z,-2.09
2023-03-01T06:06:06.349Z,-2.08
2023-03-01T06:07:08.528Z,-2.06
2023-03-01T06:08:12.006Z,-2.06
2023-03-01T06:09:15.342Z,-2.08
2023-03-01T06:10:19.698Z,-2.07
2023-03-01T06:11:22.666Z,-2.03
2023-03-01T06:12:25.188Z,-1.99
2023-03-01T06:13:27.387Z,-1.98
2023-03-01T06:14:29.798Z,-1.95
2023-03-01T06:15:32.276Z,-2.03
2023-03-01T06:16:34.745Z,-1.95
2023-03-01T06:17:39.102Z,-1.93
2023-03-01T06:18:41.867Z,-1.92
2023-03-01T06:19:44.053Z,-1.91
2023-03-01T06:20:53.304Z,-2.03
2023-03-01T06:21:56.785Z,-1.96
2023-03-01T06:22:59.341Z,-2.10
2023-03-01T06:24:01.716Z,-2.08
2023-03-01T06:25:05.201Z,-1.96
2023-03-01T06:26:09.047Z,-1.89
2023-03-01T06:27:11.404Z,-1.83
2023-03-01T06:28:13.595Z,-1.83
2023-03-01T06:29:15.981Z,-1.76
2023-03-01T06:30:19.927Z,-1.78
2023-03-01T06:31:22.202Z,-1.83
2023-03-01T06:32:24.908Z,-1.78
2023-03-01T06:33:27.485Z,-1.76
2023-03-01T06:34:29.883Z,-1.75
2023-03-01T06:35:32.418Z,-1.75
2023-03-01T06:36:34.630Z,-1.53
2023-03-01T06:37:37.554Z,-1.41
2023-03-01T06:38:41.760Z,-1.22
2023-03-01T06:39:43.988Z,-1.37
2023-03-01T06:40:53.123Z,-1.18
2023-03-01T06:41:58.026Z,-1.32
2023-03-01T06:43:00.628Z,-1.36
2023-03-01T06:44:03.917Z,-1.52
2023-03-01T06:45:07.575Z,-1.54
2023-03-01T06:46:09.798Z,-1.51
2023-03-01T06:47:11.999Z,-1.47
2023-03-01T06:48:14.169Z,-1.44
2023-03-01T06:49:18.865Z,-1.57
2023-03-01T06:50:21.134Z,-1.55
2023-03-01T06:51:23.401Z,-1.52
2023-03-01T06:52:26.025Z,-1.48
2023-03-01T06:53:29.472Z,-1.43
2023-03-01T06:54:31.881Z,-1.47
2023-03-01T06:55:34.298Z,-1.45
2023-03-01T06:56:36.510Z,-1.45
2023-03-01T06:57:38.700Z,-1.44
2023-03-01T06:58:41.308Z,-1.38
2023-03-01T06:59:43.485Z,-1.33
2023-03-01T07:00:46.075Z,-1.26
2023-03-01T07:01:48.314Z,-1.11
2023-03-01T07:02:50.634Z,-1.10
2023-03-01T07:03:53.020Z,-1.04
2023-03-01T07:04:55.246Z,-0.95
2023-03-01T07:05:57.604Z,-0.78
2023-03-01T07:06:59.971Z,-0.63
2023-03-01T07:08:02.164Z,-0.62
2023-03-01T07:09:04.566Z,-0.50
2023-03-01T07:10:07.765Z,-0.37
2023-03-01T07:11:09.971Z,-0.50
2023-03-01T07:12:12.645Z,-0.47
2023-03-01T07:13:14.844Z,-0.37
2023-03-01T07:14:17.595Z,-0.24
2023-03-01T07:15:20.021Z,-0.26
2023-03-01T07:16:22.371Z,-0.46
2023-03-01T07:17:24.854Z,-0.54
2023-03-01T07:18:27.095Z,-0.54
2023-03-01T07:19:29.346Z,-0.35
2023-03-01T07:20:31.555Z,-0.19
2023-03-01T07:21:33.912Z,-0.04
2023-03-01T07:22:36.301Z,0.00
2023-03-01T07:23:38.572Z,0.04
2023-03-01T07:24:42.458Z,0.16
2023-03-01T07:25:44.686Z,0.38
2023-03-01T07:26:51.211Z,0.59
2023-03-01T07:27:54.123Z,0.95
2023-03-01T07:28:56.320Z,1.17
2023-03-01T07:29:58.681Z,1.33
2023-03-01T07:31:04.229Z,1.58
2023-03-01T07:32:08.616Z,1.75
2023-03-01T07:33:11.165Z,1.71
2023-03-01T07:34:13.420Z,1.92
2023-03-01T07:35:15.995Z,2.18
2023-03-01T07:36:18.217Z,2.15
2023-03-01T07:37:20.758Z,2.12
2023-03-01T07:38:23.264Z,2.36
2023-03-01T07:39:25.721Z,2.20
2023-03-01T07:40:28.057Z,2.12
2023-03-01T07:41:30.742Z,2.02
2023-03-01T07:42:32.967Z,2.26
2023-03-01T07:43:36.018Z,2.48
2023-03-01T07:44:38.172Z,2.72
2023-03-01T07:45:40.564Z,2.70
2023-03-01T07:46:42.823Z,2.34
2023-03-01T07:47:44.986Z,2.65
2023-03-01T07:48:47.585Z,2.71
2023-03-01T07:49:49.796Z,3.01
2023-03-01T07:50:52.106Z,3.02
2023-03-01T07:51:54.407Z,3.19
2023-03-01T07:52:56.573Z,3.51
2023-03-01T07:53:59.148Z,3.84
2023-03-01T07:55:01.310Z,4.20
2023-03-01T07:56:09.003Z,4.39
2023-03-01T07:57:11.889Z,4.69
2023-03-01T07:58:14.083Z,4.73
2023-03-01T07:59:16.667Z,4.31
2023-03-01T08:00:19.238Z,4.31
2023-03-01T08:01:23.539Z,4.71
2023-03-01T08:02:25.734Z,4.41
2023-03-01T08:03:28.117Z,4.55
2023-03-01T08:04:30.539Z,4.66
2023-03-01T08:05:33.497Z,4.90
2023-03-01T08:06:36.910Z,5.14
2023-03-01T08:07:39.093Z,5.47
2023-03-01T08:08:41.472Z,5.71
2023-03-01T08:09:43.848Z,4.89
2023-03-01T08:10:46.259Z,4.61
2023-03-01T08:11:48.502Z,4.34
2023-03-01T08:12:53.761Z,4.61
2023-03-01T08:13:56.004Z,5.07
2023-03-01T08:14:58.559Z,4.75
2023-03-01T08:16:05.775Z,5.01
2023-03-01T08:17:08.268Z,5.45
2023-03-01T08:18:10.799Z,5.67
2023-03-01T08:19:13.643Z,5.87
2023-03-01T08:20:17.253Z,6.20
2023-03-01T08:21:20.466Z,6.49
2023-03-01T08:22:22.704Z,6.63
2023-03-01T08:23:25.171Z,6.68
2023-03-01T08:24:27.647Z,6.77
2023-03-01T08:25:30.061Z,6.64
2023-03-01T08:26:33.675Z,6.52
2023-03-01T08:27:35.982Z,5.42
2023-03-01T08:28:38.805Z,5.47
2023-03-01T08:29:41.031Z,5.58
2023-03-01T08:30:43.420Z,5.85
2023-03-01T08:31:45.971Z,5.99
2023-03-01T08:32:48.315Z,6.08
2023-03-01T08:33:56.200Z,6.02
2023-03-01T08:34:58.642Z,6.08
2023-03-01T08:36:07.398Z,6.26
2023-03-01T08:37:11.006Z,6.42
2023-03-01T08:38:13.249Z,5.68
2023-03-01T08:39:17.697Z,5.88
2023-03-01T08:40:20.138Z,5.95
2023-03-01T08:41:22.816Z,6.05
2023-03-01T08:42:25.243Z,6.30
2023-03-01T08:43:27.497Z,5.18
2023-03-01T08:44:29.814Z,4.81
2023-03-01T08:45:32.473Z,5.19
2023-03-01T08:46:38.103Z,5.61
2023-03-01T08:47:40.307Z,6.05
2023-03-01T08:48:44.180Z,6.22
2023-03-01T08:49:46.397Z,6.47
2023-03-01T08:50:48.955Z,6.61
2023-03-01T08:51:51.431Z,6.43
2023-03-01T08:52:53.681Z,6.52
2023-03-01T08:53:55.854Z,6.46
2023-03-01T08:54:58.283Z,6.56
2023-03-01T08:56:04.049Z,6.38
2023-03-01T08:57:06.393Z,5.77
2023-03-01T08:58:08.623Z,5.02
2023-03-01T08:59:12.405Z,5.29
2023-03-01T09:00:16.011Z,5.53
2023-03-01T09:01:19.982Z,5.45
2023-03-01T09:02:24.205Z,5.66
2023-03-01T09:03:28.424Z,5.66
2023-03-01T09:04:30.683Z,5.42
2023-03-01T09:05:34.596Z,4.82
2023-03-01T09:06:37.384Z,5.10
2023-03-01T09:07:39.796Z,5.68
2023-03-01T09:08:44.986Z,5.50
2023-03-01T09:09:47.363Z,5.51
2023-03-01T09:10:49.593Z,5.68
2023-03-01T09:11:51.909Z,5.77
2023-03-01T09:12:54.327Z,5.48
2023-03-01T09:13:57.022Z,5.62
2023-03-01T09:14:59.259Z,6.01
2023-03-01T09:16:03.306Z,6.33
2023-03-01T09:17:05.969Z,6.29
2023-03-01T09:18:08.429Z,6.26
2023-03-01T09:19:10.780Z,6.28
2023-03-01T09:20:13.172Z,6.59
2023-03-01T09:21:22.593Z,6.85
2023-03-01T09:22:27.359Z,6.82
2023-03-01T09:23:29.731Z,6.54
2023-03-01T09:24:32.128Z,6.49
2023-03-01T09:25:35.436Z,6.59
2023-03-01T09:26:37.621Z,6.14
2023-03-01T09:27:39.807Z,6.26
2023-03-01T09:28:42.210Z,6.30
2023-03-01T09:29:44.679Z,5.89
2023-03-01T09:30:46.936Z,5.96
2023-03-01T09:31:49.133Z,6.24
2023-03-01T09:32:51.337Z,6.45
2023-03-01T09:33:55.821Z,5.69
2023-03-01T09:35:07.106Z,5.11
2023-03-01T09:36:13.456Z,5.11
2023-03-01T09:37:16.013Z,4.97
2023-03-01T09:38:18.232Z,5.34
2023-03-01T09:39:21.483Z,5.70
2023-03-01T09:40:27.469Z,6.06
2023-03-01T09:41:46.875Z,6.03
2023-03-01T09:43:32.374Z,6.06
2023-03-01T09:44:38.227Z,6.06
2023-03-01T09:45:45.501Z,6.43
2023-03-01T09:46:48.119Z,6.52
2023-03-01T09:47:50.678Z,6.61
2023-03-01T09:48:58.254Z,6.82
2023-03-01T09:50:17.893Z,7.05
2023-03-01T09:51:35.852Z,6.91
2023-03-01T09:52:40.977Z,6.95
2023-03-01T09:53:43.789Z,6.29
2023-03-01T09:54:47.281Z,5.58
2023-03-01T09:56:01.393Z,5.22
2023-03-01T09:57:09.069Z,5.51
2023-03-01T09:58:45.017Z,5.67
2023-03-01T10:00:02.459Z,5.94
2023-03-01T10:01:33.959Z,5.83
2023-03-01T10:02:50.542Z,5.63
2023-03-01T10:04:28.906Z,5.55
2023-03-01T10:05:40.244Z,5.69
2023-03-01T10:06:55.953Z,5.91
2023-03-01T10:08:21.131Z,5.27
2023-03-01T10:09:23.561Z,4.90
2023-03-01T10:10:33.124Z,4.93
2023-03-01T10:11:42.929Z,4.77
2023-03-01T10:12:46.461Z,4.92
2023-03-01T10:14:15.102Z,5.41
2023-03-01T10:15:26.329Z,5.66
2023-03-01T10:16:34.736Z,5.24
2023-03-01T10:17:53.081Z,4.89
2023-03-01T10:19:02.824Z,5.10
2023-03-01T10:20:17.862Z,5.13
2023-03-01T10:21:21.188Z,5.32
2023-03-01T10:22:29.939Z,5.63
2023-03-01T10:23:35.498Z,5.91
2023-03-01T10:24:38.087Z,5.86
2023-03-01T10:25:49.303Z,5.89
2023-03-01T10:27:04.352Z,6.16
2023-03-01T10:28:21.685Z,5.48
2023-03-01T10:29:35.912Z,5.45
2023-03-01T10:30:42.701Z,4.99
2023-03-01T10:31:47.943Z,5.01
2023-03-01T10:32:54.437Z,4.74
2023-03-01T10:33:58.120Z,4.79
2023-03-01T10:35:00.380Z,4.65
2023-03-01T10:36:03.433Z,4.68
2023-03-01T10:37:20.184Z,4.96
2023-03-01T10:38:22.776Z,5.21
2023-03-01T10:39:26.974Z,5.07
2023-03-01T10:40:29.208Z,5.24
2023-03-01T10:41:31.947Z,5.45
2023-03-01T10:42:49.243Z,5.37
2023-03-01T10:43:54.800Z,4.98
2023-03-01T10:44:57.517Z,5.05
2023-03-01T10:45:59.725Z,5.03
2023-03-01T10:47:02.645Z,5.12
2023-03-01T10:48:27.410Z,4.93
2023-03-01T10:49:29.629Z,5.17
2023-03-01T10:50:32.471Z,4.97
2023-03-01T10:51:34.728Z,4.88
2023-03-01T10:52:41.172Z,4.67
2023-03-01T10:53:49.628Z,4.44
2023-03-01T10:55:04.039Z,4.46
2023-03-01T10:56:14.639Z,4.82
2023-03-01T10:57:30.554Z,4.98
2023-03-01T10:58:34.841Z,4.93
2023-03-01T10:59:39.349Z,5.01
2023-03-01T11:00:49.517Z,4.90
2023-03-01T11:02:25.097Z,4.76
2023-03-01T11:03:39.963Z,4.69
2023-03-01T11:05:01.627Z,4.67
2023-03-01T11:06:12.813Z,4.84
2023-03-01T11:07:14.970Z,4.97
2023-03-01T11:08:33.731Z,5.32
2023-03-01T11:09:39.412Z,5.47
2023-03-01T11:10:41.827Z,5.53
2023-03-01T11:11:44.182Z,5.58
2023-03-01T11:12:46.654Z,5.48
2023-03-01T11:13:58.689Z,5.44
2023-03-01T11:15:01.058Z,5.25
2023-03-01T11:16:13.533Z,4.99
2023-03-01T11:17:24.772Z,5.08
2023-03-01T11:18:44.217Z,5.30
2023-03-01T11:20:21.445Z,5.35
2023-03-01T11:21:25.680Z,5.46
2023-03-01T11:22:28.785Z,5.33
2023-03-01T11:23:32.865Z,5.11
2023-03-01T11:24:38.502Z,5.27
2023-03-01T11:25:44.717Z,5.59
2023-03-01T11:26:54.238Z,5.73
2023-03-01T11:27:58.474Z,5.47
2023-03-01T11:29:07.253Z,5.61
2023-03-01T11:30:28.242Z,5.35
2023-03-01T11:31:31.550Z,5.06
2023-03-01T11:32:42.235Z,5.28
2023-03-01T11:34:01.214Z,5.30
2023-03-01T11:35:15.693Z,5.39
2023-03-01T11:36:42.708Z,5.50
2023-03-01T11:38:12.257Z,5.61
2023-03-01T11:39:33.891Z,5.87
2023-03-01T11:40:54.981Z,5.72
2023-03-01T11:42:19.491Z,5.45
2023-03-01T11:43:28.617Z,5.15
2023-03-01T11:44:34.403Z,5.50
2023-03-01T11:45:46.720Z,5.79
2023-03-01T11:47:34.616Z,5.78
2023-03-01T11:49:25.025Z,5.47
2023-03-01T11:50:31.049Z,5.55
2023-03-01T11:51:52.888Z,5.79
2023-03-01T11:53:10.316Z,5.66
2023-03-01T11:54:57.055Z,5.47
2023-03-01T11:56:47.189Z,5.68
2023-03-01T11:58:07.710Z,5.30
2023-03-01T11:59:43.819Z,5.41
2023-03-01T12:01:07.770Z,5.52
2023-03-01T12:02:42.520Z,5.63
2023-03-01T12:04:21.772Z,5.76
2023-03-01T12:05:43.606Z,5.70
2023-03-01T12:06:58.160Z,5.73
2023-03-01T12:08:16.171Z,6.11
2023-03-01T12:09:30.152Z,6.28
2023-03-01T12:10:43.276Z,6.51
2023-03-01T12:12:11.363Z,6.42
2023-03-01T12:14:15.992Z,6.00
2023-03-01T12:15:47.340Z,5.98
2023-03-01T12:17:20.223Z,6.41
2023-03-01T12:18:45.705Z,6.53
2023-03-01T12:19:50.471Z,6.48
2023-03-01T12:21:14.365Z,6.57
2023-03-01T12:22:19.400Z,6.65
2023-03-01T12:23:40.488Z,6.66
2023-03-01T12:24:42.684Z,6.95
2023-03-01T12:26:05.817Z,6.47
2023-03-01T12:27:20.683Z,6.46
2023-03-01T12:28:47.700Z,6.23
2023-03-01T12:30:05.081Z,6.25
2023-03-01T12:31:14.325Z,6.53
2023-03-01T12:32:36.550Z,6.78
2023-03-01T12:33:46.138Z,6.58
2023-03-01T12:35:13.602Z,6.65
2023-03-01T12:36:16.032Z,6.45
2023-03-01T12:37:34.596Z,6.33
2023-03-01T12:38:51.833Z,6.34
2023-03-01T12:40:02.792Z,6.65
2023-03-01T12:41:18.211Z,6.75
2023-03-01T12:43:01.362Z,7.09
2023-03-01T12:44:24.758Z,7.03
2023-03-01T12:45:48.989Z,6.50
2023-03-01T12:47:17.351Z,6.70
2023-03-01T12:48:33.319Z,6.82
2023-03-01T12:49:35.626Z,6.81
2023-03-01T12:50:48.247Z,6.91
2023-03-01T12:52:05.109Z,6.65
2023-03-01T12:53:21.866Z,6.71
2023-03-01T12:54:37.355Z,6.84
2023-03-01T12:55:44.150Z,7.16
2023-03-01T12:56:53.142Z,7.05
2023-03-01T12:58:02.675Z,7.06
2023-03-01T12:59:27.211Z,7.29
2023-03-01T13:00:36.806Z,7.48
2023-03-01T13:02:06.969Z,7.49
2023-03-01T13:03:18.409Z,7.21
2023-03-01T13:04:53.197Z,6.67
2023-03-01T13:06:13.929Z,6.46
2023-03-01T13:07:31.006Z,6.54
2023-03-01T13:08:40.342Z,6.67
2023-03-01T13:10:12.660Z,6.64
2023-03-01T13:11:24.661Z,6.86
2023-03-01T13:13:05.927Z,6.94
2023-03-01T13:14:26.570Z,7.26
2023-03-01T13:15:38.942Z,7.27
2023-03-01T13:16:45.960Z,7.08
2023-03-01T13:17:53.472Z,6.83
2023-03-01T13:19:32.512Z,6.76
2023-03-01T13:20:45.870Z,6.37
2023-03-01T13:21:50.408Z,6.60
2023-03-01T13:23:06.185Z,6.72
2023-03-01T13:24:25.051Z,6.64
2023-03-01T13:25:32.031Z,6.29
2023-03-01T13:27:08.630Z,6.50
2023-03-01T13:28:35.201Z,6.76
2023-03-01T13:29:48.098Z,7.04
2023-03-01T13:30:50.535Z,7.05
2023-03-01T13:31:52.936Z,7.17
2023-03-01T13:33:35.249Z,7.26
2023-03-01T13:34:42.576Z,7.02
2023-03-01T13:35:45.821Z,6.94
2023-03-01T13:36:50.126Z,6.88
2023-03-01T13:37:52.447Z,7.00
2023-03-01T13:38:54.622Z,7.19
2023-03-01T13:39:59.794Z,7.29
2023-03-01T13:41:02.076Z,7.35
2023-03-01T13:42:04.695Z,7.28
2023-03-01T13:43:31.412Z,7.03
2023-03-01T13:44:37.026Z,7.14
2023-03-01T13:45:42.136Z,7.12
2023-03-01T13:46:46.620Z,7.15
2023-03-01T13:47:55.180Z,7.08
2023-03-01T13:48:58.178Z,7.12
2023-03-01T13:50:03.621Z,7.08
2023-03-01T13:51:11.406Z,7.13
2023-03-01T13:52:25.863Z,7.05
2023-03-01T13:53:32.641Z,6.78
2023-03-01T13:54:36.001Z,6.86
2023-03-01T13:55:47.455Z,6.90
2023-03-01T13:56:49.732Z,6.98
2023-03-01T13:57:57.324Z,7.01
2023-03-01T13:59:04.243Z,7.29
2023-03-01T14:00:07.469Z,7.19
2023-03-01T14:01:23.422Z,7.20
2023-03-01T14:02:25.796Z,7.12
2023-03-01T14:03:32.811Z,7.02
2023-03-01T14:04:38.618Z,7.07
2023-03-01T14:05:43.323Z,7.02
2023-03-01T14:06:45.554Z,6.72
2023-03-01T14:07:52.639Z,6.75
2023-03-01T14:09:18.716Z,6.54
2023-03-01T14:10:21.007Z,6.75
2023-03-01T14:11:42.016Z,6.84
2023-03-01T14:12:57.269Z,6.77
2023-03-01T14:14:04.714Z,6.99
2023-03-01T14:15:31.069Z,7.07
2023-03-01T14:16:42.448Z,6.87
2023-03-01T14:18:15.843Z,6.90
2023-03-01T14:19:34.912Z,7.00
2023-03-01T14:20:43.887Z,7.18
2023-03-01T14:21:46.817Z,7.27
2023-03-01T14:22:50.801Z,7.31
2023-03-01T14:23:53.608Z,7.38
2023-03-01T14:24:58.949Z,7.29
2023-03-01T14:26:01.396Z,7.31
2023-03-01T14:27:03.761Z,7.18
2023-03-01T14:28:18.918Z,7.08
2023-03-01T14:29:39.622Z,6.87
2023-03-01T14:30:53.221Z,6.85
2023-03-01T14:31:55.590Z,6.84
2023-03-01T14:33:00.419Z,6.95
2023-03-01T14:34:02.948Z,7.09
2023-03-01T14:35:24.644Z,7.08
2023-03-01T14:36:29.931Z,7.06
2023-03-01T14:37:35.640Z,7.32
2023-03-01T14:38:46.949Z,7.32
2023-03-01T14:39:50.446Z,7.46